Time;durP1;ratioP1;P1;durP2;ratioP2;P2;SDS_P1;SDS_P2;PMS_P1;PMS_P2;Temp;Humidity;BMP_temperature;BMP_pressure;BME280_temperature;BME280_humidity;BME280_pressure;Samples;Min_cycle;Max_cycle;Signal;HPM_P1;HPM_P2
2022/04/23 00:01:13;;;;;;;17.02;10.32;;;;;;;9.37;100.00;100870.03;4951028;28;20049;-75
2022/04/23 00:03:38;;;;;;;17.40;10.30;;;;;;;9.44;100.00;100875.41;4977129;28;20058;-73
2022/04/23 00:06:04;;;;;;;18.40;9.98;;;;;;;9.38;100.00;100877.06;4971362;28;20036;-73
2022/04/23 00:08:30;;;;;;;19.90;10.00;;;;;;;9.28;100.00;100877.47;4977627;28;20033;-73
2022/04/23 00:10:55;;;;;;;18.85;10.23;;;;;;;9.28;100.00;100872.06;4984604;28;20407;-72
2022/04/23 00:13:21;;;;;;;18.52;10.40;;;;;;;9.25;100.00;100872.47;4984322;28;20052;-73
2022/04/23 00:15:46;;;;;;;16.92;10.50;;;;;;;9.18;100.00;100871.63;4979236;28;20532;-73
2022/04/23 00:18:12;;;;;;;17.02;9.88;;;;;;;9.20;100.00;100869.59;4965549;28;20851;-73
2022/04/23 00:20:38;;;;;;;17.48;10.65;;;;;;;9.16;100.00;100879.09;4968908;28;20485;-73
2022/04/23 00:23:05;;;;;;;19.42;11.10;;;;;;;9.10;100.00;100879.91;4967890;28;20560;-72
2022/04/23 00:25:31;;;;;;;22.55;10.98;;;;;;;9.06;100.00;100884.03;4978376;28;20045;-73
2022/04/23 00:27:56;;;;;;;19.48;11.15;;;;;;;8.96;100.00;100879.03;4953602;28;20508;-72
2022/04/23 00:30:22;;;;;;;19.20;11.07;;;;;;;8.83;100.00;100869.03;4967521;28;20115;-73
2022/04/23 00:32:47;;;;;;;18.13;11.15;;;;;;;8.84;100.00;100878.78;4970062;28;20053;-72
2022/04/23 00:35:17;;;;;;;23.55;12.57;;;;;;;8.82;100.00;100877.31;4968895;28;20489;-72
2022/04/23 00:37:44;;;;;;;17.63;11.30;;;;;;;8.79;100.00;100883.91;4965574;28;20337;-72
2022/04/23 00:40:16;;;;;;;17.08;11.60;;;;;;;8.80;100.00;100869.44;4966588;28;20040;-72
2022/04/23 00:42:53;;;;;;;19.98;12.02;;;;;;;8.72;100.00;100874.16;4969699;28;20080;-73
2022/04/23 00:45:19;;;;;;;23.60;13.73;;;;;;;8.71;100.00;100876.03;4966668;28;20176;-73
2022/04/23 00:47:45;;;;;;;25.63;13.57;;;;;;;8.67;100.00;100866.72;4945205;28;20039;-73
2022/04/23 00:50:10;;;;;;;22.80;12.52;;;;;;;8.72;100.00;100872.31;4985327;28;20500;-73
2022/04/23 00:52:36;;;;;;;23.35;13.60;;;;;;;8.73;100.00;100868.59;4981335;28;20033;-72
2022/04/23 00:55:06;;;;;;;20.50;13.23;;;;;;;8.71;100.00;100862.59;4955714;28;20048;-73
2022/04/23 00:57:32;;;;;;;21.52;13.57;;;;;;;8.67;100.00;100872.09;4982852;28;20025;-73
2022/04/23 00:59:59;;;;;;;25.25;13.82;;;;;;;8.73;100.00;100863.22;4953809;28;20150;-75
2022/04/23 01:02:24;;;;;;;19.83;13.80;;;;;;;8.75;100.00;100868.41;4983426;28;20132;-74
2022/04/23 01:04:49;;;;;;;24.35;13.52;;;;;;;8.70;100.00;100873.53;4981660;28;21798;-74
2022/04/23 01:07:15;;;;;;;23.58;14.32;;;;;;;8.73;100.00;100862.38;4987482;28;25665;-75
2022/04/23 01:09:44;;;;;;;21.40;13.48;;;;;;;8.67;100.00;100858.66;4956214;28;20136;-75
2022/04/23 01:12:11;;;;;;;24.52;13.98;;;;;;;8.60;100.00;100865.84;4970271;28;20046;-75
2022/04/23 01:14:58;;;;;;;23.33;13.27;;;;;;;8.59;100.00;100862.31;4967807;28;20087;-75
2022/04/23 01:17:24;;;;;;;21.33;13.65;;;;;;;8.66;100.00;100851.63;4988100;28;20469;-74
2022/04/23 01:19:49;;;;;;;27.20;14.43;;;;;;;8.67;100.00;100863.19;4987523;28;20099;-74
2022/04/23 01:22:15;;;;;;;25.55;13.90;;;;;;;8.58;100.00;100857.16;4970740;28;20140;-74
2022/04/23 01:24:42;;;;;;;26.88;16.35;;;;;;;8.52;100.00;100860.63;4990300;28;20088;-74
2022/04/23 01:27:07;;;;;;;20.83;14.32;;;;;;;8.50;100.00;100857.34;4968032;28;21769;-74
2022/04/23 01:29:33;;;;;;;25.08;15.40;;;;;;;8.51;100.00;100864.34;4990816;28;20036;-74
2022/04/23 01:31:58;;;;;;;24.85;16.63;;;;;;;8.48;100.00;100870.13;4959369;28;20054;-73
2022/04/23 01:34:24;;;;;;;23.38;15.25;;;;;;;8.43;100.00;100861.84;4967940;28;20036;-73
2022/04/23 01:36:49;;;;;;;25.88;15.38;;;;;;;8.48;100.00;100870.94;4948418;28;20049;-73
2022/04/23 01:39:15;;;;;;;26.73;15.48;;;;;;;8.43;100.00;100872.59;4983444;28;20049;-72
2022/04/23 01:41:40;;;;;;;23.38;15.55;;;;;;;8.40;100.00;100868.44;4984311;28;20037;-72
2022/04/23 01:44:05;;;;;;;22.23;15.48;;;;;;;8.40;100.00;100870.28;4969130;28;20394;-72
2022/04/23 01:46:31;;;;;;;21.88;16.00;;;;;;;8.35;100.00;100876.19;4983971;28;20098;-72
2022/04/23 01:48:57;;;;;;;24.52;15.70;;;;;;;8.31;100.00;100875.75;4930618;28;20064;-72
2022/04/23 01:51:23;;;;;;;26.17;16.20;;;;;;;8.33;100.00;100872.91;4969307;28;20052;-72
2022/04/23 01:53:49;;;;;;;26.98;17.45;;;;;;;8.27;100.00;100879.03;4981758;28;20473;-72
2022/04/23 01:56:14;;;;;;;23.65;15.93;;;;;;;8.28;100.00;100881.56;4985293;28;20484;-72
2022/04/23 01:58:39;;;;;;;21.90;15.77;;;;;;;8.31;100.00;100873.09;4985397;28;20120;-72
2022/04/23 02:01:05;;;;;;;29.02;17.23;;;;;;;8.30;100.00;100878.66;4970770;28;20064;-72
2022/04/23 02:03:32;;;;;;;24.20;16.08;;;;;;;8.26;100.00;100872.84;4989633;28;20282;-72
2022/04/23 02:05:58;;;;;;;23.95;15.82;;;;;;;8.27;100.00;100874.50;4974958;28;20429;-72
2022/04/23 02:08:23;;;;;;;25.30;16.92;;;;;;;8.23;100.00;100875.09;4988014;28;20464;-73
2022/04/23 02:10:49;;;;;;;27.23;16.92;;;;;;;8.22;100.00;100876.13;4983786;28;20481;-73
2022/04/23 02:13:14;;;;;;;29.98;17.55;;;;;;;8.15;100.00;100862.69;4970234;28;20041;-72
2022/04/23 02:15:42;;;;;;;26.33;16.88;;;;;;;8.16;100.00;100861.66;4984202;28;20056;-72
2022/04/23 02:18:08;;;;;;;27.52;17.27;;;;;;;8.16;100.00;100867.00;4986627;28;20107;-71
2022/04/23 02:20:34;;;;;;;30.13;17.65;;;;;;;8.13;100.00;100873.59;4952269;28;20150;-71
2022/04/23 02:22:59;;;;;;;29.27;16.80;;;;;;;8.07;100.00;100870.84;4971497;28;20085;-72
2022/04/23 02:25:25;;;;;;;28.73;18.60;;;;;;;8.01;100.00;100874.34;4985673;28;20104;-71
2022/04/23 02:27:50;;;;;;;27.92;18.45;;;;;;;8.01;100.00;100868.97;4957758;28;20512;-71
2022/04/23 02:30:18;;;;;;;29.17;19.20;;;;;;;7.89;100.00;100868.66;4985912;28;20500;-71
2022/04/23 02:32:44;;;;;;;33.22;19.63;;;;;;;7.87;100.00;100871.56;4963674;28;22687;-71
2022/04/23 02:35:10;;;;;;;31.10;18.00;;;;;;;7.86;100.00;100875.25;4972844;28;20839;-72
2022/04/23 02:37:36;;;;;;;29.60;19.38;;;;;;;7.80;100.00;100881.41;4986375;28;20036;-72
2022/04/23 02:40:03;;;;;;;30.10;19.88;;;;;;;7.82;100.00;100876.66;4973103;28;20122;-72
2022/04/23 02:42:29;;;;;;;32.53;19.50;;;;;;;7.86;100.00;100879.78;4983174;28;20139;-72
2022/04/23 02:44:55;;;;;;;28.17;18.55;;;;;;;7.86;100.00;100866.38;4950693;28;20141;-73
2022/04/23 02:47:21;;;;;;;29.48;18.73;;;;;;;7.88;100.00;100875.06;4965986;28;20469;-73
2022/04/23 02:49:47;;;;;;;29.90;19.10;;;;;;;7.89;100.00;100877.53;4970502;28;20160;-72
2022/04/23 02:52:12;;;;;;;28.73;19.48;;;;;;;7.86;100.00;100877.94;4985320;28;20045;-72
2022/04/23 02:54:38;;;;;;;26.25;18.25;;;;;;;7.89;100.00;100872.16;4965433;28;20035;-73
2022/04/23 02:57:04;;;;;;;26.17;19.10;;;;;;;7.85;100.00;100873.59;4985122;28;20250;-72
2022/04/23 02:59:30;;;;;;;31.73;18.85;;;;;;;7.87;100.00;100871.56;4967702;28;20602;-72
2022/04/23 03:01:56;;;;;;;32.63;19.45;;;;;;;7.88;100.00;100878.56;4969222;28;20033;-73
2022/04/23 03:04:21;;;;;;;25.70;18.35;;;;;;;7.84;100.00;100874.63;4972383;28;20045;-73
2022/04/23 03:06:47;;;;;;;22.73;17.65;;;;;;;7.76;100.00;100866.72;4969773;28;20057;-73
2022/04/23 03:09:12;;;;;;;25.85;17.45;;;;;;;7.74;100.00;100866.06;4985623;28;20064;-71
2022/04/23 03:11:38;;;;;;;31.48;19.75;;;;;;;7.75;100.00;100867.72;4950059;28;20079;-73
2022/04/23 03:14:04;;;;;;;25.33;17.38;;;;;;;7.72;100.00;100867.28;4984810;28;20041;-73
2022/04/23 03:16:32;;;;;;;26.60;17.38;;;;;;;7.67;100.00;100873.22;4980421;28;20043;-74
2022/04/23 03:18:57;;;;;;;24.98;18.70;;;;;;;7.69;100.00;100878.38;4983502;28;20033;-73
2022/04/23 03:21:23;;;;;;;26.67;17.25;;;;;;;7.74;100.00;100879.47;4983321;28;20589;-72
2022/04/23 03:23:48;;;;;;;25.13;17.98;;;;;;;7.76;100.00;100874.78;4971855;28;21024;-74
2022/04/23 03:26:14;;;;;;;24.20;16.73;;;;;;;7.76;100.00;100869.41;4987008;28;20033;-75
2022/04/23 03:28:40;;;;;;;25.13;16.88;;;;;;;7.77;100.00;100863.00;4955646;28;20574;-74
2022/04/23 03:31:05;;;;;;;24.17;17.13;;;;;;;7.77;100.00;100871.06;4967934;28;20028;-74
2022/04/23 03:33:32;;;;;;;23.00;16.83;;;;;;;7.74;100.00;100874.13;4972782;28;20052;-74
2022/04/23 03:35:57;;;;;;;24.45;16.90;;;;;;;7.74;100.00;100868.75;4986982;28;20124;-72
2022/04/23 03:38:22;;;;;;;22.90;16.70;;;;;;;7.65;100.00;100878.81;4969968;28;20037;-72
2022/04/23 03:40:53;;;;;;;25.05;15.82;;;;;;;7.59;100.00;100870.69;4965689;28;20882;-72
2022/04/23 03:43:24;;;;;;;23.58;17.90;;;;;;;7.59;100.00;100868.03;4984888;28;20467;-72
2022/04/23 03:45:50;;;;;;;26.90;17.48;;;;;;;7.61;100.00;100868.63;4955272;28;20419;-72
2022/04/23 03:48:15;;;;;;;27.58;17.15;;;;;;;7.62;100.00;100864.94;4983192;28;20037;-71
2022/04/23 03:50:41;;;;;;;20.65;15.85;;;;;;;7.54;100.00;100865.06;4980716;28;20370;-71
2022/04/23 03:53:08;;;;;;;26.10;17.27;;;;;;;7.47;100.00;100872.22;4987033;28;21047;-72
2022/04/23 03:55:34;;;;;;;21.38;17.63;;;;;;;7.45;100.00;100869.75;4964013;28;20033;-72
2022/04/23 03:58:00;;;;;;;24.83;18.25;;;;;;;7.44;100.00;100872.59;4968681;28;20040;-71
2022/04/23 04:00:26;;;;;;;23.88;18.10;;;;;;;7.46;100.00;100874.06;4983573;28;20032;-72
2022/04/23 04:02:53;;;;;;;23.38;17.77;;;;;;;7.50;100.00;100864.63;4971332;28;20460;-74
2022/04/23 04:05:19;;;;;;;24.33;17.58;;;;;;;7.40;100.00;100875.66;4985638;28;20056;-72
2022/04/23 04:07:47;;;;;;;28.58;18.48;;;;;;;7.38;100.00;100874.22;4969414;28;20080;-72
2022/04/23 04:10:17;;;;;;;25.60;18.25;;;;;;;7.39;100.00;100871.31;4966370;28;20033;-73
2022/04/23 04:12:43;;;;;;;22.83;16.85;;;;;;;7.40;100.00;100878.34;4951230;28;20049;-73
2022/04/23 04:15:10;;;;;;;22.20;17.15;;;;;;;7.39;100.00;100865.13;4984956;28;20039;-73
2022/04/23 04:17:38;;;;;;;26.90;17.38;;;;;;;7.39;100.00;100865.13;4967489;28;20698;-73
2022/04/23 04:20:07;;;;;;;25.15;17.58;;;;;;;7.38;100.00;100864.31;4970669;28;20120;-72
2022/04/23 04:22:34;;;;;;;22.33;17.08;;;;;;;7.38;100.00;100864.31;4965296;28;20043;-75
2022/04/23 04:25:03;;;;;;;21.10;16.85;;;;;;;7.28;100.00;100858.44;4969409;28;20210;-75
2022/04/23 04:27:29;;;;;;;24.13;16.70;;;;;;;7.26;100.00;100860.47;4954652;28;20095;-74
2022/04/23 04:29:54;;;;;;;23.33;17.35;;;;;;;7.26;100.00;100865.81;4956475;28;21322;-75
2022/04/23 04:32:20;;;;;;;26.50;18.40;;;;;;;7.28;100.00;100869.16;4985104;28;20037;-75
2022/04/23 04:34:46;;;;;;;24.60;17.27;;;;;;;7.28;100.00;100868.34;4967628;28;20052;-75
2022/04/23 04:37:12;;;;;;;24.30;18.17;;;;;;;7.26;100.00;100876.53;4949590;28;20677;-75
2022/04/23 04:39:39;;;;;;;21.48;17.42;;;;;;;7.23;100.00;100868.91;4969447;28;20557;-75
2022/04/23 04:42:06;;;;;;;26.35;18.42;;;;;;;7.28;100.00;100874.50;4951618;28;21399;-75
2022/04/23 04:44:31;;;;;;;21.60;17.80;;;;;;;7.28;100.00;100869.16;4985308;28;20124;-75
2022/04/23 04:46:57;;;;;;;21.95;17.38;;;;;;;7.30;100.00;100877.84;4958895;28;20055;-75
2022/04/23 04:49:22;;;;;;;21.30;16.48;;;;;;;7.33;100.00;100861.38;4969557;28;20037;-75
2022/04/23 04:51:48;;;;;;;22.70;16.25;;;;;;;7.39;100.00;100871.31;4942566;28;20545;-75
2022/04/23 04:54:14;;;;;;;21.20;16.67;;;;;;;7.45;100.00;100874.28;4965965;28;20050;-75
2022/04/23 04:56:39;;;;;;;20.25;16.08;;;;;;;7.49;100.00;100875.56;4951495;28;20048;-75
2022/04/23 04:59:05;;;;;;;18.90;15.70;;;;;;;7.47;100.00;100872.22;4972116;28;23783;-75
2022/04/23 05:01:30;;;;;;;23.95;16.35;;;;;;;7.51;100.00;100882.38;4976105;28;20039;-74
2022/04/23 05:03:56;;;;;;;20.50;15.82;;;;;;;7.52;100.00;100873.31;4953689;28;20080;-74
2022/04/23 05:06:21;;;;;;;20.95;15.57;;;;;;;7.56;100.00;100879.13;4982968;28;20056;-72
2022/04/23 05:08:47;;;;;;;24.25;16.70;;;;;;;7.56;100.00;100881.81;4970189;28;20041;-73
2022/04/23 05:11:13;;;;;;;21.75;16.20;;;;;;;7.57;100.00;100886.13;4967967;28;20037;-74
2022/04/23 05:13:38;;;;;;;23.75;16.35;;;;;;;7.65;100.00;100875.25;4979105;28;20171;-74
2022/04/23 05:16:07;;;;;;;19.48;14.80;;;;;;;8.12;100.00;100888.03;4984687;28;20646;-74
2022/04/23 05:18:34;;;;;;;21.73;15.35;;;;;;;8.62;100.00;100893.31;4953971;28;24436;-74
2022/04/23 05:21:00;;;;;;;19.38;14.52;;;;;;;9.00;100.00;100884.81;4972531;28;20992;-75
2022/04/23 05:23:25;;;;;;;20.02;13.88;;;;;;;9.21;100.00;100886.53;4984751;28;20078;-75
2022/04/23 05:25:51;;;;;;;17.25;13.38;;;;;;;9.14;100.00;100891.06;4939160;28;20056;-72
2022/04/23 05:28:16;;;;;;;20.40;14.13;;;;;;;9.26;100.00;100887.56;4965876;28;20045;-73
2022/04/23 05:30:43;;;;;;;17.15;13.95;;;;;;;9.17;100.00;100901.41;4966675;28;20041;-73
2022/04/23 05:33:09;;;;;;;16.33;13.50;;;;;;;9.25;100.00;100893.16;4985391;28;20048;-72
2022/04/23 05:35:34;;;;;;;17.38;12.35;;;;;;;9.45;100.00;100896.72;4953827;28;20054;-75
2022/04/23 05:38:00;;;;;;;15.90;12.77;;;;;;;9.61;100.00;100906.25;4988567;28;20087;-75
2022/04/23 05:40:25;;;;;;;14.77;12.00;;;;;;;10.10;100.00;100917.66;4955666;28;20040;-74
2022/04/23 05:42:55;;;;;;;17.45;12.20;;;;;;;11.11;100.00;100904.59;4988589;28;20087;-74
2022/04/23 05:45:20;;;;;;;17.40;11.50;;;;;;;11.66;100.00;100912.97;4974376;28;20101;-74
2022/04/23 05:47:46;;;;;;;14.85;11.32;;;;;;;12.05;100.00;100908.34;4973724;28;20053;-74
2022/04/23 05:50:11;;;;;;;13.93;10.93;;;;;;;12.23;100.00;100918.38;4988218;28;20033;-74
2022/04/23 05:52:37;;;;;;;17.55;11.48;;;;;;;12.46;100.00;100906.94;4957456;28;20629;-74
2022/04/23 05:55:04;;;;;;;17.92;11.43;;;;;;;12.38;100.00;100909.91;4975407;28;20131;-75
2022/04/23 05:57:33;;;;;;;16.05;10.63;;;;;;;13.05;100.00;100924.31;4974072;28;20592;-74
2022/04/23 05:59:59;;;;;;;12.45;10.00;;;;;;;12.54;100.00;100914.75;4976115;28;20057;-72
2022/04/23 06:02:25;;;;;;;17.95;11.98;;;;;;;12.95;100.00;100918.66;4976893;28;20048;-72
2022/04/23 06:04:50;;;;;;;14.95;10.80;;;;;;;13.32;100.00;100910.50;4971216;28;20343;-72
2022/04/23 06:07:16;;;;;;;15.02;10.80;;;;;;;13.56;98.99;100925.75;4972657;28;20503;-72
2022/04/23 06:09:42;;;;;;;12.77;9.57;;;;;;;13.89;93.93;100919.00;4970628;28;20145;-72
2022/04/23 06:12:08;;;;;;;12.60;9.65;;;;;;;14.19;88.22;100910.81;4986044;28;20029;-72
2022/04/23 06:14:33;;;;;;;18.70;10.55;;;;;;;13.78;86.19;100925.22;4957895;28;20217;-72
2022/04/23 06:16:59;;;;;;;15.50;10.10;;;;;;;14.21;79.36;100918.69;4973184;28;20315;-72
2022/04/23 06:19:24;;;;;;;12.40;10.00;;;;;;;13.82;80.90;100923.72;4971669;28;20092;-74
2022/04/23 06:21:50;;;;;;;12.20;9.82;;;;;;;13.98;79.99;100927.63;4973480;28;20033;-74
2022/04/23 06:24:15;;;;;;;14.60;11.00;;;;;;;14.19;76.44;100928.94;4973943;28;20080;-75
2022/04/23 06:26:41;;;;;;;13.15;10.70;;;;;;;14.07;76.96;100924.34;4952797;28;20049;-74
2022/04/23 06:29:07;;;;;;;13.90;10.35;;;;;;;14.17;75.50;100934.59;4975319;28;20029;-74
2022/04/23 06:31:32;;;;;;;13.38;10.75;;;;;;;13.79;77.88;100922.31;4959233;28;20088;-74
2022/04/23 06:33:57;;;;;;;13.65;10.73;;;;;;;14.14;73.03;100926.09;4987629;28;20036;-74
2022/04/23 06:36:23;;;;;;;12.48;11.02;;;;;;;14.64;69.15;100928.41;4957993;28;20049;-72
2022/04/23 06:38:50;;;;;;;14.40;10.50;;;;;;;15.04;66.77;100929.22;4969553;28;20025;-71
2022/04/23 06:41:17;;;;;;;13.18;10.35;;;;;;;15.49;62.44;100928.47;4954820;28;20036;-72
2022/04/23 06:43:43;;;;;;;15.75;11.45;;;;;;;15.21;60.80;100933.91;4957219;28;20147;-72
2022/04/23 06:46:08;;;;;;;15.20;11.35;;;;;;;15.38;61.18;100934.78;4957545;28;20041;-72
2022/04/23 06:48:34;;;;;;;16.33;11.35;;;;;;;15.37;59.62;100924.16;4969590;28;20674;-72
2022/04/23 06:50:59;;;;;;;13.23;11.15;;;;;;;15.00;60.10;100933.50;4984286;28;20152;-72
2022/04/23 06:53:25;;;;;;;15.23;10.52;;;;;;;14.62;62.59;100938.63;4953484;28;20053;-71
2022/04/23 06:55:50;;;;;;;15.15;10.55;;;;;;;14.73;61.39;100943.22;4985828;28;20033;-72
2022/04/23 06:58:16;;;;;;;12.50;10.27;;;;;;;15.08;59.94;100935.00;4968154;28;21328;-72
2022/04/23 07:00:41;;;;;;;13.48;10.43;;;;;;;15.31;59.05;100928.69;4983171;28;21015;-72
2022/04/23 07:03:07;;;;;;;13.05;10.60;;;;;;;15.15;58.77;100938.41;4987729;28;20021;-72
2022/04/23 07:05:33;;;;;;;16.20;11.07;;;;;;;14.72;61.13;100936.97;4958660;28;20187;-72
2022/04/23 07:08:00;;;;;;;13.57;10.10;;;;;;;15.54;57.73;100929.63;4987775;28;20049;-71
2022/04/23 07:10:27;;;;;;;12.52;9.90;;;;;;;16.00;56.54;100931.28;4958698;28;20140;-72
2022/04/23 07:12:53;;;;;;;10.85;9.75;;;;;;;16.23;55.08;100917.53;4970274;28;20079;-72
2022/04/23 07:15:19;;;;;;;14.73;9.35;;;;;;;15.76;55.59;100930.63;4971222;28;20490;-72
2022/04/23 07:17:46;;;;;;;12.63;10.50;;;;;;;15.98;55.43;100939.69;4987063;28;20048;-72
2022/04/23 07:20:12;;;;;;;10.93;9.50;;;;;;;16.02;54.91;100928.34;4955161;28;20067;-72
2022/04/23 07:22:38;;;;;;;12.02;10.45;;;;;;;16.62;52.28;100922.16;4955092;28;22699;-72
2022/04/23 07:25:03;;;;;;;11.95;10.43;;;;;;;16.35;52.96;100922.88;4989270;28;20029;-72
2022/04/23 07:27:29;;;;;;;18.48;10.32;;;;;;;15.98;53.76;100907.09;4974703;28;20053;-72
2022/04/23 07:29:55;;;;;;;12.27;10.07;;;;;;;15.92;53.69;100921.66;4970965;28;20033;-72
2022/04/23 07:32:21;;;;;;;12.70;9.95;;;;;;;16.51;51.77;100920.38;4955520;28;20057;-72
2022/04/23 07:37:31;;;;;;;13.20;9.70;;;;;;;16.51;51.46;100917.66;4954498;28;20056;-72
2022/04/23 07:39:58;;;;;;;16.75;9.52;;;;;;;16.36;50.82;100897.34;4968881;28;20068;-72
2022/04/23 07:42:25;;;;;;;17.08;10.43;;;;;;;15.95;52.03;100921.16;4957249;28;20119;-72
2022/04/23 07:44:51;;;;;;;14.27;10.00;;;;;;;16.40;51.99;100914.81;4986093;28;20455;-73
2022/04/23 07:47:16;;;;;;;11.00;9.82;;;;;;;16.58;51.11;100904.72;4966763;28;20044;-72
2022/04/23 07:49:42;;;;;;;11.60;10.15;;;;;;;16.68;50.35;100899.41;4956761;28;21703;-72
2022/04/23 07:52:08;;;;;;;18.60;11.38;;;;;;;16.93;49.67;100907.09;4975043;28;20086;-73
2022/04/23 07:54:33;;;;;;;21.73;9.57;;;;;;;16.65;49.95;100884.41;4973099;28;22780;-72
2022/04/23 07:56:59;;;;;;;15.55;10.95;;;;;;;17.18;49.73;100892.97;4986761;28;20041;-73
2022/04/23 07:59:24;;;;;;;13.88;9.65;;;;;;;16.76;49.39;100885.41;4958615;28;20720;-73
2022/04/23 08:01:51;;;;;;;14.02;10.55;;;;;;;17.07;49.45;100888.50;4988001;28;20071;-72
2022/04/23 08:04:16;;;;;;;17.10;9.32;;;;;;;17.56;47.62;100889.28;4957638;28;20041;-72
2022/04/23 08:06:42;;;;;;;10.85;9.52;;;;;;;17.32;48.17;100890.66;4971547;28;20044;-72
2022/04/23 08:09:07;;;;;;;15.23;10.05;;;;;;;17.18;48.65;100892.97;4989589;28;20041;-72
2022/04/23 08:11:33;;;;;;;16.13;10.27;;;;;;;16.73;48.40;100872.25;4940117;28;20037;-73
2022/04/23 08:13:58;;;;;;;14.85;10.77;;;;;;;16.77;49.85;100876.16;4986894;28;20049;-72
2022/04/23 08:16:26;;;;;;;16.63;9.70;;;;;;;17.68;48.11;100880.09;4972542;28;20044;-73
2022/04/23 08:18:52;;;;;;;11.88;9.88;;;;;;;17.76;46.57;100885.94;4986842;28;20044;-73
2022/04/23 08:21:17;;;;;;;12.32;9.85;;;;;;;17.38;46.86;100881.47;4956520;28;20044;-71
2022/04/23 08:23:43;;;;;;;13.20;10.57;;;;;;;16.91;47.68;100871.97;4971855;28;20041;-73
2022/04/23 08:26:08;;;;;;;17.75;10.25;;;;;;;16.72;48.07;100877.97;4981323;28;20976;-72
2022/04/23 08:31:18;;;;;;;15.30;10.95;;;;;;;16.52;47.32;100881.22;4986837;28;20048;-73
2022/04/23 08:33:58;;;;;;;15.65;11.38;;;;;;;16.76;48.49;100879.13;4969160;28;20053;-73
2022/04/23 08:36:26;;;;;;;16.88;9.80;;;;;;;16.98;47.13;100879.13;4985619;28;20036;-73
2022/04/23 08:38:56;;;;;;;19.23;10.32;;;;;;;17.11;47.19;100876.81;4971004;28;20063;-72
2022/04/23 08:41:28;;;;;;;13.57;10.73;;;;;;;17.07;46.94;100877.59;4968170;28;20167;-72
2022/04/23 08:43:55;;;;;;;13.07;10.70;;;;;;;17.29;46.71;100867.47;4970058;28;20055;-72
2022/04/23 08:46:22;;;;;;;16.48;10.80;;;;;;;17.29;46.63;100867.47;4970832;28;20151;-72
2022/04/23 08:48:50;;;;;;;19.88;10.50;;;;;;;17.09;46.17;100873.56;4954633;28;23365;-73
2022/04/23 08:51:20;;;;;;;16.13;10.85;;;;;;;17.09;46.90;100872.72;4971575;28;20112;-72
2022/04/23 08:53:46;;;;;;;13.65;10.52;;;;;;;17.16;47.61;100878.78;4965086;28;20043;-72
2022/04/23 08:56:12;;;;;;;16.67;10.77;;;;;;;17.05;46.66;100871.56;4973613;28;20520;-72
2022/04/23 08:58:39;;;;;;;17.98;9.90;;;;;;;17.57;45.32;100873.75;4985186;28;20036;-72
2022/04/23 09:01:05;;;;;;;13.52;10.20;;;;;;;17.29;44.93;100861.22;4966481;28;20139;-72
2022/04/23 09:03:31;;;;;;;13.15;10.35;;;;;;;17.58;45.47;100869.94;4955589;28;20052;-73
2022/04/23 09:05:56;;;;;;;14.98;10.38;;;;;;;17.66;45.77;100874.94;4951997;28;20044;-73
2022/04/23 09:08:23;;;;;;;14.13;10.57;;;;;;;17.15;45.91;100866.25;4971252;28;20041;-72
2022/04/23 09:10:59;;;;;;;16.27;11.07;;;;;;;17.49;47.10;100876.94;4968060;28;20183;-72
2022/04/23 09:13:29;;;;;;;11.80;10.52;;;;;;;17.62;45.34;100882.78;4984762;28;20033;-72
2022/04/23 09:24:49;;;;;;;17.45;10.40;;;;;;;17.56;44.36;100851.13;4977590;28;20029;-74
2022/04/23 09:27:15;;;;;;;14.85;10.13;;;;;;;17.77;42.92;100849.44;4982964;28;20648;-72
2022/04/23 09:29:42;;;;;;;14.05;10.10;;;;;;;17.65;43.50;100865.09;4968622;28;20060;-72
2022/04/23 09:32:14;;;;;;;16.98;10.48;;;;;;;17.04;42.68;100856.34;4983793;28;20156;-72
2022/04/23 09:34:40;;;;;;;16.67;9.97;;;;;;;17.08;44.29;100860.19;4938192;28;20999;-72
2022/04/23 09:37:08;;;;;;;22.73;10.23;;;;;;;16.80;43.49;100862.03;4969072;28;20033;-72
2022/04/23 09:39:35;;;;;;;13.52;10.50;;;;;;;16.98;43.51;100854.63;4954139;28;20129;-72
2022/04/23 09:42:17;;;;;;;14.63;9.27;;;;;;;16.72;43.99;100859.75;4985479;28;20480;-72
2022/04/23 09:44:44;;;;;;;11.95;9.10;;;;;;;17.07;42.82;100836.78;4970129;28;20046;-72
2022/04/23 09:47:10;;;;;;;12.57;9.73;;;;;;;16.75;43.02;100856.56;4970274;28;20463;-72
2022/04/23 09:49:36;;;;;;;16.17;10.13;;;;;;;16.79;43.39;100844.09;4970046;28;20119;-72
2022/04/23 09:52:07;;;;;;;14.23;9.70;;;;;;;16.99;43.63;100834.50;4985230;28;20029;-72
2022/04/23 09:54:34;;;;;;;13.27;9.25;;;;;;;16.89;43.37;100837.94;4969036;28;20021;-72
2022/04/23 09:57:00;;;;;;;16.70;10.35;;;;;;;17.16;43.60;100832.50;4972213;28;20103;-72
2022/04/23 09:59:26;;;;;;;14.18;10.15;;;;;;;17.38;43.14;100852.34;4971319;28;20028;-72
2022/04/23 10:01:54;;;;;;;15.77;11.25;;;;;;;17.24;44.04;100850.28;4970614;28;20062;-72
2022/04/23 10:04:22;;;;;;;12.55;9.40;;;;;;;16.91;43.32;100836.59;4970071;28;20049;-72
2022/04/23 10:06:49;;;;;;;14.75;10.45;;;;;;;17.12;44.01;100848.53;4953867;28;20060;-72
2022/04/23 10:09:19;;;;;;;14.57;10.50;;;;;;;17.09;43.68;100830.00;4988536;28;20106;-73
2022/04/23 10:11:49;;;;;;;13.38;9.93;;;;;;;17.40;44.38;100836.53;4956060;28;22613;-73
2022/04/23 10:14:19;;;;;;;11.50;9.18;;;;;;;17.73;43.69;100823.78;4971208;28;20069;-72
2022/04/23 10:16:47;;;;;;;13.68;10.77;;;;;;;17.49;42.20;100838.81;4963354;28;24148;-74
2022/04/23 10:19:14;;;;;;;15.35;10.13;;;;;;;17.56;43.04;100833.97;4958701;28;24132;-75
2022/04/23 10:21:54;;;;;;;14.80;9.80;;;;;;;17.47;42.14;100835.53;4968021;28;20105;-75
2022/04/23 10:24:30;;;;;;;13.88;9.75;;;;;;;17.33;41.17;100843.28;4972928;28;20146;-75
2022/04/23 10:27:07;;;;;;;13.07;9.63;;;;;;;17.27;42.17;100836.16;4987662;28;21537;-75
2022/04/23 10:29:33;;;;;;;16.95;10.23;;;;;;;17.53;41.01;100821.69;4939788;28;20085;-75
2022/04/23 10:32:10;;;;;;;13.10;9.57;;;;;;;17.86;41.70;100838.88;4973272;28;20043;-75
2022/04/23 10:34:37;;;;;;;13.48;11.07;;;;;;;17.91;42.24;100829.94;4976575;28;20178;-75
2022/04/23 10:37:41;;;;;;;14.77;10.07;;;;;;;18.09;40.82;100824.03;4941172;28;20045;-75
2022/04/23 10:40:17;;;;;;;;;;;;;;;18.26;41.43;100824.69;4922599;28;20164;-75
2022/04/23 10:43:12;;;;;;;14.77;10.23;;;;;;;18.22;40.53;100837.22;4970520;28;19920;-75
2022/04/23 10:45:39;;;;;;;14.95;10.15;;;;;;;18.65;39.23;100818.88;4967853;28;20143;-73
2022/04/23 10:48:23;;;;;;;13.10;9.85;;;;;;;18.04;39.60;100824.00;4988859;28;20040;-73
2022/04/23 10:50:58;;;;;;;;;;;;;;;18.70;39.06;100821.59;4974982;28;20045;-73
2022/04/23 10:53:37;;;;;;;14.07;9.50;;;;;;;18.63;38.89;100818.28;4971833;28;19916;-73
2022/04/23 10:56:13;;;;;;;14.93;9.07;;;;;;;18.64;39.50;100819.97;4972349;28;20049;-73
2022/04/23 10:58:40;;;;;;;12.82;10.10;;;;;;;18.10;39.43;100821.03;4990050;28;20059;-73
2022/04/23 11:01:27;;;;;;;13.35;9.50;;;;;;;19.14;38.67;100801.28;4970506;28;20178;-73
2022/04/23 11:03:52;;;;;;;13.98;9.30;;;;;;;19.41;36.81;100799.13;4967130;28;20081;-73
2022/04/23 11:12:14;;;;;;;13.18;9.13;;;;;;;19.15;37.75;100806.47;4956353;28;20054;-72
2022/04/23 11:12:36;;;;;;;10.32;9.27;;;;;;;19.47;37.97;100813.59;4962767;28;20033;-72
2022/04/23 11:15:02;;;;;;;13.55;8.55;;;;;;;19.67;36.55;100810.88;4968940;28;20113;-73
2022/04/23 11:17:32;;;;;;;15.18;8.98;;;;;;;19.38;36.32;100807.06;4970654;28;20060;-73
2022/04/23 11:19:59;;;;;;;15.55;9.15;;;;;;;19.27;38.08;100804.31;4952611;28;20140;-73
2022/04/23 11:22:25;;;;;;;10.80;8.50;;;;;;;19.34;36.82;100793.13;4970677;28;20135;-72
2022/04/23 11:24:54;;;;;;;14.00;8.90;;;;;;;19.02;37.42;100796.06;4952671;28;20049;-72
2022/04/23 11:27:24;;;;;;;10.95;8.65;;;;;;;19.50;37.24;100807.59;4946625;28;20033;-72
2022/04/23 11:29:54;;;;;;;14.90;9.43;;;;;;;19.78;36.57;100798.03;4966053;28;20025;-73